sensor_id;sensor_type;location;lat;lon;timestamp;P1;durP1;ratioP1;P2;durP2;ratioP2
64208;SDS011;50527;52.414;13.226;2023-08-17T00:02:00;2.97;;;0.68;;
64208;SDS011;50527;52.414;13.226;2023-08-17T00:04:25;3.97;;;0.80;;
64208;SDS011;50527;52.414;13.226;2023-08-17T00:06:51;1.73;;;0.50;;
64208;SDS011;50527;52.414;13.226;2023-08-17T00:09:16;2.83;;;0.55;;
64208;SDS011;50527;52.414;13.226;2023-08-17T00:11:42;2.63;;;0.63;;
64208;SDS011;50527;52.414;13.226;2023-08-17T00:14:07;1.25;;;0.60;;
64208;SDS011;50527;52.414;13.226;2023-08-17T00:16:33;2.13;;;0.77;;
64208;SDS011;50527;52.414;13.226;2023-08-17T00:18:58;3.70;;;0.50;;
64208;SDS011;50527;52.414;13.226;2023-08-17T00:21:24;1.88;;;0.50;;
64208;SDS011;50527;52.414;13.226;2023-08-17T00:23:49;2.83;;;0.70;;
64208;SDS011;50527;52.414;13.226;2023-08-17T00:26:15;2.80;;;0.80;;
64208;SDS011;50527;52.414;13.226;2023-08-17T00:28:40;3.63;;;0.68;;
64208;SDS011;50527;52.414;13.226;2023-08-17T00:31:06;3.88;;;0.77;;
64208;SDS011;50527;52.414;13.226;2023-08-17T00:33:31;2.08;;;0.60;;
64208;SDS011;50527;52.414;13.226;2023-08-17T00:35:57;2.90;;;0.80;;
64208;SDS011;50527;52.414;13.226;2023-08-17T00:38:22;2.70;;;0.50;;
64208;SDS011;50527;52.414;13.226;2023-08-17T00:40:48;3.15;;;0.77;;
64208;SDS011;50527;52.414;13.226;2023-08-17T00:43:13;3.40;;;0.77;;
64208;SDS011;50527;52.414;13.226;2023-08-17T00:45:39;1.85;;;0.50;;
64208;SDS011;50527;52.414;13.226;2023-08-17T00:48:05;1.70;;;0.65;;
64208;SDS011;50527;52.414;13.226;2023-08-17T00:50:32;2.25;;;0.70;;
64208;SDS011;50527;52.414;13.226;2023-08-17T00:52:59;1.48;;;0.50;;
64208;SDS011;50527;52.414;13.226;2023-08-17T00:55:25;4.72;;;0.80;;
64208;SDS011;50527;52.414;13.226;2023-08-17T00:57:51;2.85;;;0.77;;
64208;SDS011;50527;52.414;13.226;2023-08-17T01:00:18;2.88;;;0.60;;
64208;SDS011;50527;52.414;13.226;2023-08-17T01:02:43;1.27;;;0.57;;
64208;SDS011;50527;52.414;13.226;2023-08-17T01:05:09;2.42;;;0.63;;
64208;SDS011;50527;52.414;13.226;2023-08-17T01:07:35;5.70;;;0.70;;
64208;SDS011;50527;52.414;13.226;2023-08-17T01:10:02;1.13;;;0.60;;
64208;SDS011;50527;52.414;13.226;2023-08-17T01:12:33;2.55;;;0.70;;
64208;SDS011;50527;52.414;13.226;2023-08-17T01:15:18;4.22;;;0.82;;
64208;SDS011;50527;52.414;13.226;2023-08-17T01:17:52;3.15;;;0.50;;
64208;SDS011;50527;52.414;13.226;2023-08-17T01:20:25;2.75;;;0.70;;
64208;SDS011;50527;52.414;13.226;2023-08-17T01:22:51;2.72;;;0.73;;
64208;SDS011;50527;52.414;13.226;2023-08-17T01:25:22;3.95;;;0.70;;
64208;SDS011;50527;52.414;13.226;2023-08-17T01:27:47;2.25;;;0.60;;
64208;SDS011;50527;52.414;13.226;2023-08-17T01:30:14;4.43;;;0.73;;
64208;SDS011;50527;52.414;13.226;2023-08-17T01:32:53;3.45;;;0.65;;
64208;SDS011;50527;52.414;13.226;2023-08-17T01:35:32;2.47;;;0.75;;
64208;SDS011;50527;52.414;13.226;2023-08-17T01:37:59;2.60;;;0.57;;
64208;SDS011;50527;52.414;13.226;2023-08-17T01:40:31;1.95;;;0.57;;
64208;SDS011;50527;52.414;13.226;2023-08-17T01:42:58;3.08;;;0.63;;
64208;SDS011;50527;52.414;13.226;2023-08-17T01:45:24;1.40;;;0.70;;
64208;SDS011;50527;52.414;13.226;2023-08-17T01:47:50;6.38;;;0.70;;
64208;SDS011;50527;52.414;13.226;2023-08-17T01:50:15;3.33;;;0.77;;
64208;SDS011;50527;52.414;13.226;2023-08-17T01:52:41;2.83;;;0.73;;
64208;SDS011;50527;52.414;13.226;2023-08-17T01:55:07;0.98;;;0.47;;
64208;SDS011;50527;52.414;13.226;2023-08-17T01:57:33;2.10;;;0.70;;
64208;SDS011;50527;52.414;13.226;2023-08-17T01:59:59;4.30;;;0.77;;
64208;SDS011;50527;52.414;13.226;2023-08-17T02:02:24;1.08;;;0.60;;
64208;SDS011;50527;52.414;13.226;2023-08-17T02:04:50;1.65;;;0.45;;
64208;SDS011;50527;52.414;13.226;2023-08-17T02:07:15;3.90;;;0.68;;
64208;SDS011;50527;52.414;13.226;2023-08-17T02:09:41;2.42;;;0.70;;
64208;SDS011;50527;52.414;13.226;2023-08-17T02:12:06;7.55;;;1.02;;
64208;SDS011;50527;52.414;13.226;2023-08-17T02:14:33;2.25;;;0.50;;
64208;SDS011;50527;52.414;13.226;2023-08-17T02:16:58;2.67;;;0.63;;
64208;SDS011;50527;52.414;13.226;2023-08-17T02:19:24;4.43;;;0.68;;
64208;SDS011;50527;52.414;13.226;2023-08-17T02:21:49;1.85;;;0.60;;
64208;SDS011;50527;52.414;13.226;2023-08-17T02:24:15;2.00;;;0.57;;
64208;SDS011;50527;52.414;13.226;2023-08-17T02:26:40;3.25;;;0.85;;
64208;SDS011;50527;52.414;13.226;2023-08-17T02:29:06;3.85;;;0.80;;
64208;SDS011;50527;52.414;13.226;2023-08-17T02:31:31;3.53;;;0.60;;
64208;SDS011;50527;52.414;13.226;2023-08-17T02:33:56;1.60;;;0.60;;
64208;SDS011;50527;52.414;13.226;2023-08-17T02:36:26;2.28;;;0.90;;
64208;SDS011;50527;52.414;13.226;2023-08-17T02:38:51;1.00;;;0.50;;
64208;SDS011;50527;52.414;13.226;2023-08-17T02:41:18;3.97;;;0.77;;
64208;SDS011;50527;52.414;13.226;2023-08-17T02:43:43;2.80;;;0.80;;
64208;SDS011;50527;52.414;13.226;2023-08-17T02:46:09;3.20;;;0.60;;
64208;SDS011;50527;52.414;13.226;2023-08-17T02:48:34;1.98;;;0.73;;
64208;SDS011;50527;52.414;13.226;2023-08-17T02:51:00;3.40;;;0.70;;
64208;SDS011;50527;52.414;13.226;2023-08-17T02:53:25;4.45;;;0.70;;
64208;SDS011;50527;52.414;13.226;2023-08-17T02:55:51;3.10;;;0.70;;
64208;SDS011;50527;52.414;13.226;2023-08-17T02:58:16;4.57;;;0.70;;
64208;SDS011;50527;52.414;13.226;2023-08-17T03:00:42;3.17;;;0.60;;
64208;SDS011;50527;52.414;13.226;2023-08-17T03:03:07;2.03;;;0.77;;
64208;SDS011;50527;52.414;13.226;2023-08-17T03:05:33;2.47;;;0.75;;
64208;SDS011;50527;52.414;13.226;2023-08-17T03:07:58;2.90;;;0.60;;
64208;SDS011;50527;52.414;13.226;2023-08-17T03:10:24;3.75;;;0.60;;
64208;SDS011;50527;52.414;13.226;2023-08-17T03:12:50;2.55;;;0.70;;
64208;SDS011;50527;52.414;13.226;2023-08-17T03:15:15;2.25;;;0.50;;
64208;SDS011;50527;52.414;13.226;2023-08-17T03:17:41;1.63;;;0.50;;
64208;SDS011;50527;52.414;13.226;2023-08-17T03:20:07;2.22;;;0.70;;
64208;SDS011;50527;52.414;13.226;2023-08-17T03:22:33;2.05;;;0.60;;
64208;SDS011;50527;52.414;13.226;2023-08-17T03:24:59;3.53;;;0.55;;
64208;SDS011;50527;52.414;13.226;2023-08-17T03:27:24;3.30;;;0.55;;
64208;SDS011;50527;52.414;13.226;2023-08-17T03:29:50;3.05;;;0.80;;
64208;SDS011;50527;52.414;13.226;2023-08-17T03:32:16;3.20;;;0.50;;
64208;SDS011;50527;52.414;13.226;2023-08-17T03:34:42;5.47;;;0.70;;
64208;SDS011;50527;52.414;13.226;2023-08-17T03:37:07;1.88;;;0.63;;
64208;SDS011;50527;52.414;13.226;2023-08-17T03:39:33;3.85;;;0.90;;
64208;SDS011;50527;52.414;13.226;2023-08-17T03:41:58;3.67;;;0.80;;
64208;SDS011;50527;52.414;13.226;2023-08-17T03:44:24;1.80;;;0.55;;
64208;SDS011;50527;52.414;13.226;2023-08-17T03:46:49;1.63;;;0.52;;
64208;SDS011;50527;52.414;13.226;2023-08-17T03:49:14;3.60;;;0.77;;
64208;SDS011;50527;52.414;13.226;2023-08-17T03:51:41;4.80;;;0.68;;
64208;SDS011;50527;52.414;13.226;2023-08-17T03:54:07;2.13;;;0.60;;
64208;SDS011;50527;52.414;13.226;2023-08-17T03:56:32;2.97;;;0.68;;
64208;SDS011;50527;52.414;13.226;2023-08-17T03:58:58;2.17;;;0.60;;
64208;SDS011;50527;52.414;13.226;2023-08-17T04:01:23;5.35;;;0.68;;
64208;SDS011;50527;52.414;13.226;2023-08-17T04:03:49;2.67;;;0.77;;
64208;SDS011;50527;52.414;13.226;2023-08-17T04:06:15;2.45;;;0.82;;
64208;SDS011;50527;52.414;13.226;2023-08-17T04:08:40;3.03;;;0.77;;
64208;SDS011;50527;52.414;13.226;2023-08-17T04:11:06;4.15;;;0.60;;
64208;SDS011;50527;52.414;13.226;2023-08-17T04:13:31;2.95;;;0.45;;
64208;SDS011;50527;52.414;13.226;2023-08-17T04:15:57;2.72;;;0.60;;
64208;SDS011;50527;52.414;13.226;2023-08-17T04:18:22;1.25;;;0.40;;
64208;SDS011;50527;52.414;13.226;2023-08-17T04:20:48;1.67;;;0.57;;
64208;SDS011;50527;52.414;13.226;2023-08-17T04:23:14;3.85;;;0.50;;
64208;SDS011;50527;52.414;13.226;2023-08-17T04:25:40;1.45;;;0.50;;
64208;SDS011;50527;52.414;13.226;2023-08-17T04:28:05;1.83;;;0.50;;
64208;SDS011;50527;52.414;13.226;2023-08-17T04:30:31;6.95;;;0.70;;
64208;SDS011;50527;52.414;13.226;2023-08-17T04:32:56;3.80;;;0.80;;
64208;SDS011;50527;52.414;13.226;2023-08-17T04:35:22;3.47;;;0.50;;
64208;SDS011;50527;52.414;13.226;2023-08-17T04:37:47;3.40;;;0.63;;
64208;SDS011;50527;52.414;13.226;2023-08-17T04:40:13;4.60;;;0.77;;
64208;SDS011;50527;52.414;13.226;2023-08-17T04:42:39;3.97;;;0.60;;
64208;SDS011;50527;52.414;13.226;2023-08-17T04:45:05;1.50;;;0.40;;
64208;SDS011;50527;52.414;13.226;2023-08-17T04:47:31;2.42;;;0.60;;
64208;SDS011;50527;52.414;13.226;2023-08-17T04:49:56;3.95;;;0.80;;
64208;SDS011;50527;52.414;13.226;2023-08-17T04:52:22;1.38;;;0.50;;
64208;SDS011;50527;52.414;13.226;2023-08-17T04:54:47;1.58;;;0.43;;
64208;SDS011;50527;52.414;13.226;2023-08-17T04:57:13;6.30;;;0.68;;
64208;SDS011;50527;52.414;13.226;2023-08-17T04:59:38;2.28;;;0.60;;
64208;SDS011;50527;52.414;13.226;2023-08-17T05:02:03;0.98;;;0.60;;
64208;SDS011;50527;52.414;13.226;2023-08-17T05:04:29;4.70;;;0.70;;
64208;SDS011;50527;52.414;13.226;2023-08-17T05:06:56;1.92;;;0.50;;
64208;SDS011;50527;52.414;13.226;2023-08-17T05:09:21;1.63;;;0.45;;
64208;SDS011;50527;52.414;13.226;2023-08-17T05:11:47;2.67;;;0.70;;
64208;SDS011;50527;52.414;13.226;2023-08-17T05:14:12;2.25;;;0.50;;
64208;SDS011;50527;52.414;13.226;2023-08-17T05:16:38;1.40;;;0.52;;
64208;SDS011;50527;52.414;13.226;2023-08-17T05:19:03;2.25;;;0.50;;
64208;SDS011;50527;52.414;13.226;2023-08-17T05:21:29;3.78;;;0.80;;
64208;SDS011;50527;52.414;13.226;2023-08-17T05:23:54;4.82;;;0.73;;
64208;SDS011;50527;52.414;13.226;2023-08-17T05:26:20;2.35;;;0.50;;
64208;SDS011;50527;52.414;13.226;2023-08-17T05:28:46;1.70;;;0.50;;
64208;SDS011;50527;52.414;13.226;2023-08-17T05:31:12;3.60;;;0.60;;
64208;SDS011;50527;52.414;13.226;2023-08-17T05:33:37;4.68;;;0.65;;
64208;SDS011;50527;52.414;13.226;2023-08-17T05:36:05;0.85;;;0.30;;
64208;SDS011;50527;52.414;13.226;2023-08-17T05:38:31;2.83;;;0.60;;
64208;SDS011;50527;52.414;13.226;2023-08-17T05:40:57;1.77;;;0.65;;
64208;SDS011;50527;52.414;13.226;2023-08-17T05:43:24;1.23;;;0.43;;
64208;SDS011;50527;52.414;13.226;2023-08-17T05:45:49;2.28;;;0.50;;
64208;SDS011;50527;52.414;13.226;2023-08-17T05:48:15;4.13;;;0.70;;
64208;SDS011;50527;52.414;13.226;2023-08-17T05:50:43;3.38;;;0.68;;
64208;SDS011;50527;52.414;13.226;2023-08-17T05:53:09;2.13;;;0.50;;
64208;SDS011;50527;52.414;13.226;2023-08-17T05:55:34;1.85;;;0.73;;
64208;SDS011;50527;52.414;13.226;2023-08-17T05:58:00;2.30;;;0.60;;
64208;SDS011;50527;52.414;13.226;2023-08-17T06:00:26;2.42;;;0.40;;
64208;SDS011;50527;52.414;13.226;2023-08-17T06:02:52;3.65;;;0.60;;
64208;SDS011;50527;52.414;13.226;2023-08-17T06:05:17;2.88;;;0.57;;
64208;SDS011;50527;52.414;13.226;2023-08-17T06:07:43;2.33;;;0.47;;
64208;SDS011;50527;52.414;13.226;2023-08-17T06:10:09;4.38;;;0.70;;
64208;SDS011;50527;52.414;13.226;2023-08-17T06:12:35;6.70;;;0.77;;
64208;SDS011;50527;52.414;13.226;2023-08-17T06:15:03;2.60;;;0.75;;
64208;SDS011;50527;52.414;13.226;2023-08-17T06:17:29;2.30;;;0.70;;
64208;SDS011;50527;52.414;13.226;2023-08-17T06:19:54;2.33;;;0.70;;
64208;SDS011;50527;52.414;13.226;2023-08-17T06:22:20;2.42;;;0.75;;
64208;SDS011;50527;52.414;13.226;2023-08-17T06:24:45;2.13;;;1.02;;
64208;SDS011;50527;52.414;13.226;2023-08-17T06:27:14;3.22;;;0.80;;
64208;SDS011;50527;52.414;13.226;2023-08-17T06:29:40;2.80;;;0.90;;
64208;SDS011;50527;52.414;13.226;2023-08-17T06:32:06;2.72;;;0.57;;
64208;SDS011;50527;52.414;13.226;2023-08-17T06:34:33;9.80;;;0.90;;
64208;SDS011;50527;52.414;13.226;2023-08-17T06:36:59;1.70;;;0.60;;
64208;SDS011;50527;52.414;13.226;2023-08-17T06:39:26;3.00;;;0.80;;
64208;SDS011;50527;52.414;13.226;2023-08-17T06:41:52;4.30;;;0.77;;
64208;SDS011;50527;52.414;13.226;2023-08-17T06:44:18;2.58;;;0.80;;
64208;SDS011;50527;52.414;13.226;2023-08-17T06:46:44;5.88;;;0.98;;
64208;SDS011;50527;52.414;13.226;2023-08-17T06:49:10;2.30;;;0.90;;
64208;SDS011;50527;52.414;13.226;2023-08-17T06:51:36;9.23;;;1.50;;
64208;SDS011;50527;52.414;13.226;2023-08-17T06:54:01;5.32;;;1.08;;
64208;SDS011;50527;52.414;13.226;2023-08-17T06:56:27;5.20;;;1.30;;
64208;SDS011;50527;52.414;13.226;2023-08-17T06:58:52;3.55;;;1.00;;
64208;SDS011;50527;52.414;13.226;2023-08-17T07:01:18;2.67;;;0.95;;
64208;SDS011;50527;52.414;13.226;2023-08-17T07:03:43;3.08;;;1.00;;
64208;SDS011;50527;52.414;13.226;2023-08-17T07:06:09;2.97;;;1.13;;
64208;SDS011;50527;52.414;13.226;2023-08-17T07:08:35;3.53;;;1.00;;
64208;SDS011;50527;52.414;13.226;2023-08-17T07:11:00;1.98;;;0.80;;
64208;SDS011;50527;52.414;13.226;2023-08-17T07:13:26;4.15;;;1.00;;
64208;SDS011;50527;52.414;13.226;2023-08-17T07:15:51;2.28;;;0.95;;
64208;SDS011;50527;52.414;13.226;2023-08-17T07:18:17;2.53;;;1.00;;
64208;SDS011;50527;52.414;13.226;2023-08-17T07:20:43;2.70;;;1.10;;
64208;SDS011;50527;52.414;13.226;2023-08-17T07:23:08;3.00;;;1.00;;
64208;SDS011;50527;52.414;13.226;2023-08-17T07:25:34;5.57;;;1.30;;
64208;SDS011;50527;52.414;13.226;2023-08-17T07:27:59;3.97;;;0.90;;
64208;SDS011;50527;52.414;13.226;2023-08-17T07:30:25;5.03;;;1.10;;
64208;SDS011;50527;52.414;13.226;2023-08-17T07:32:50;4.28;;;1.20;;
64208;SDS011;50527;52.414;13.226;2023-08-17T07:35:16;3.03;;;1.17;;
64208;SDS011;50527;52.414;13.226;2023-08-17T07:37:41;4.03;;;1.05;;
64208;SDS011;50527;52.414;13.226;2023-08-17T07:40:07;5.05;;;1.20;;
64208;SDS011;50527;52.414;13.226;2023-08-17T07:42:33;3.95;;;1.10;;
64208;SDS011;50527;52.414;13.226;2023-08-17T07:44:58;5.03;;;1.10;;
64208;SDS011;50527;52.414;13.226;2023-08-17T07:47:24;4.95;;;1.10;;
64208;SDS011;50527;52.414;13.226;2023-08-17T07:49:50;3.05;;;1.05;;
64208;SDS011;50527;52.414;13.226;2023-08-17T07:52:15;4.05;;;1.48;;
64208;SDS011;50527;52.414;13.226;2023-08-17T07:54:41;3.88;;;0.90;;
64208;SDS011;50527;52.414;13.226;2023-08-17T07:57:06;2.50;;;1.00;;
64208;SDS011;50527;52.414;13.226;2023-08-17T07:59:32;4.38;;;0.90;;
64208;SDS011;50527;52.414;13.226;2023-08-17T08:01:57;2.72;;;0.90;;
64208;SDS011;50527;52.414;13.226;2023-08-17T08:04:23;3.28;;;0.90;;
64208;SDS011;50527;52.414;13.226;2023-08-17T08:06:48;3.55;;;1.00;;
64208;SDS011;50527;52.414;13.226;2023-08-17T08:09:14;1.63;;;0.85;;
64208;SDS011;50527;52.414;13.226;2023-08-17T08:11:39;3.60;;;1.08;;
64208;SDS011;50527;52.414;13.226;2023-08-17T08:14:04;4.20;;;1.00;;
64208;SDS011;50527;52.414;13.226;2023-08-17T08:16:30;0.93;;;0.52;;
64208;SDS011;50527;52.414;13.226;2023-08-17T08:18:56;3.88;;;1.20;;
64208;SDS011;50527;52.414;13.226;2023-08-17T08:21:21;3.15;;;1.05;;
64208;SDS011;50527;52.414;13.226;2023-08-17T08:23:47;3.67;;;0.80;;
64208;SDS011;50527;52.414;13.226;2023-08-17T08:26:13;5.07;;;1.00;;
64208;SDS011;50527;52.414;13.226;2023-08-17T08:28:39;3.60;;;1.02;;
64208;SDS011;50527;52.414;13.226;2023-08-17T08:31:04;5.38;;;0.90;;
64208;SDS011;50527;52.414;13.226;2023-08-17T08:33:30;5.30;;;0.60;;
64208;SDS011;50527;52.414;13.226;2023-08-17T08:35:56;1.75;;;0.82;;
64208;SDS011;50527;52.414;13.226;2023-08-17T08:38:21;3.58;;;0.80;;
64208;SDS011;50527;52.414;13.226;2023-08-17T08:40:47;5.25;;;1.10;;
64208;SDS011;50527;52.414;13.226;2023-08-17T08:43:13;6.05;;;1.08;;
64208;SDS011;50527;52.414;13.226;2023-08-17T08:45:41;3.03;;;0.75;;
64208;SDS011;50527;52.414;13.226;2023-08-17T08:48:09;3.92;;;0.93;;
64208;SDS011;50527;52.414;13.226;2023-08-17T08:50:36;5.07;;;1.00;;
64208;SDS011;50527;52.414;13.226;2023-08-17T08:53:05;2.20;;;1.00;;
64208;SDS011;50527;52.414;13.226;2023-08-17T08:55:53;3.20;;;0.88;;
64208;SDS011;50527;52.414;13.226;2023-08-17T08:58:22;1.95;;;0.73;;
64208;SDS011;50527;52.414;13.226;2023-08-17T09:00:53;3.53;;;1.15;;
64208;SDS011;50527;52.414;13.226;2023-08-17T09:03:20;3.08;;;0.80;;
64208;SDS011;50527;52.414;13.226;2023-08-17T09:05:49;4.28;;;1.30;;
64208;SDS011;50527;52.414;13.226;2023-08-17T09:08:17;4.72;;;0.90;;
64208;SDS011;50527;52.414;13.226;2023-08-17T09:10:46;4.70;;;0.93;;
64208;SDS011;50527;52.414;13.226;2023-08-17T09:13:12;3.72;;;0.90;;
64208;SDS011;50527;52.414;13.226;2023-08-17T09:15:37;4.82;;;0.90;;
64208;SDS011;50527;52.414;13.226;2023-08-17T09:18:04;1.73;;;0.85;;
64208;SDS011;50527;52.414;13.226;2023-08-17T09:20:44;2.60;;;0.80;;
64208;SDS011;50527;52.414;13.226;2023-08-17T09:23:11;2.30;;;0.80;;
64208;SDS011;50527;52.414;13.226;2023-08-17T09:25:39;5.07;;;0.75;;
64208;SDS011;50527;52.414;13.226;2023-08-17T09:28:12;1.48;;;0.73;;
64208;SDS011;50527;52.414;13.226;2023-08-17T09:33:24;2.97;;;0.90;;
64208;SDS011;50527;52.414;13.226;2023-08-17T09:35:55;5.43;;;1.02;;
64208;SDS011;50527;52.414;13.226;2023-08-17T09:38:22;2.45;;;0.98;;
64208;SDS011;50527;52.414;13.226;2023-08-17T09:40:48;4.28;;;0.73;;
64208;SDS011;50527;52.414;13.226;2023-08-17T09:43:14;4.28;;;1.10;;
64208;SDS011;50527;52.414;13.226;2023-08-17T09:45:41;1.83;;;0.80;;
64208;SDS011;50527;52.414;13.226;2023-08-17T09:48:14;2.10;;;0.90;;
64208;SDS011;50527;52.414;13.226;2023-08-17T09:50:42;2.88;;;0.90;;
64208;SDS011;50527;52.414;13.226;2023-08-17T09:53:12;2.00;;;1.08;;
64208;SDS011;50527;52.414;13.226;2023-08-17T09:55:42;3.70;;;1.25;;
64208;SDS011;50527;52.414;13.226;2023-08-17T09:58:08;3.13;;;1.05;;
64208;SDS011;50527;52.414;13.226;2023-08-17T10:00:34;2.60;;;1.00;;
64208;SDS011;50527;52.414;13.226;2023-08-17T10:03:03;2.15;;;1.20;;
64208;SDS011;50527;52.414;13.226;2023-08-17T10:05:35;10.98;;;1.25;;
64208;SDS011;50527;52.414;13.226;2023-08-17T10:08:04;2.22;;;1.20;;
64208;SDS011;50527;52.414;13.226;2023-08-17T10:10:32;9.73;;;1.50;;
64208;SDS011;50527;52.414;13.226;2023-08-17T10:15:37;5.35;;;0.98;;
64208;SDS011;50527;52.414;13.226;2023-08-17T10:18:13;4.32;;;0.80;;
64208;SDS011;50527;52.414;13.226;2023-08-17T10:20:49;1.90;;;0.82;;
64208;SDS011;50527;52.414;13.226;2023-08-17T10:23:24;3.33;;;0.73;;
64208;SDS011;50527;52.414;13.226;2023-08-17T10:25:51;2.72;;;0.80;;
64208;SDS011;50527;52.414;13.226;2023-08-17T10:28:18;3.97;;;0.80;;
64208;SDS011;50527;52.414;13.226;2023-08-17T10:30:47;1.70;;;0.75;;
64208;SDS011;50527;52.414;13.226;2023-08-17T10:33:13;2.83;;;0.77;;
64208;SDS011;50527;52.414;13.226;2023-08-17T10:35:40;3.60;;;0.88;;
64208;SDS011;50527;52.414;13.226;2023-08-17T10:38:07;3.40;;;0.70;;
64208;SDS011;50527;52.414;13.226;2023-08-17T10:40:37;3.30;;;0.82;;
64208;SDS011;50527;52.414;13.226;2023-08-17T10:43:04;1.40;;;0.75;;
64208;SDS011;50527;52.414;13.226;2023-08-17T10:45:30;2.92;;;0.80;;
64208;SDS011;50527;52.414;13.226;2023-08-17T10:48:01;4.05;;;0.80;;
64208;SDS011;50527;52.414;13.226;2023-08-17T10:50:58;1.20;;;0.68;;
64208;SDS011;50527;52.414;13.226;2023-08-17T10:53:25;2.40;;;0.90;;
64208;SDS011;50527;52.414;13.226;2023-08-17T10:55:54;2.28;;;0.65;;
64208;SDS011;50527;52.414;13.226;2023-08-17T10:58:22;1.40;;;0.80;;
64208;SDS011;50527;52.414;13.226;2023-08-17T11:00:48;1.20;;;0.75;;
64208;SDS011;50527;52.414;13.226;2023-08-17T11:03:20;3.13;;;0.90;;
64208;SDS011;50527;52.414;13.226;2023-08-17T11:05:48;1.92;;;1.00;;
64208;SDS011;50527;52.414;13.226;2023-08-17T11:08:20;1.90;;;0.77;;
64208;SDS011;50527;52.414;13.226;2023-08-17T11:10:48;2.45;;;0.90;;
64208;SDS011;50527;52.414;13.226;2023-08-17T11:13:22;1.60;;;0.80;;
64208;SDS011;50527;52.414;13.226;2023-08-17T11:15:48;2.17;;;0.80;;
64208;SDS011;50527;52.414;13.226;2023-08-17T11:18:14;4.38;;;0.90;;
64208;SDS011;50527;52.414;13.226;2023-08-17T11:20:40;5.15;;;0.90;;
64208;SDS011;50527;52.414;13.226;2023-08-17T11:23:06;2.58;;;0.70;;
64208;SDS011;50527;52.414;13.226;2023-08-17T11:25:33;4.18;;;0.98;;
64208;SDS011;50527;52.414;13.226;2023-08-17T11:27:59;3.60;;;0.73;;
64208;SDS011;50527;52.414;13.226;2023-08-17T11:30:26;1.85;;;1.00;;
64208;SDS011;50527;52.414;13.226;2023-08-17T11:32:52;2.22;;;1.08;;
64208;SDS011;50527;52.414;13.226;2023-08-17T11:35:19;2.20;;;0.93;;
64208;SDS011;50527;52.414;13.226;2023-08-17T11:37:46;1.33;;;0.90;;
64208;SDS011;50527;52.414;13.226;2023-08-17T11:40:13;4.15;;;0.90;;
64208;SDS011;50527;52.414;13.226;2023-08-17T11:42:39;2.80;;;0.88;;
64208;SDS011;50527;52.414;13.226;2023-08-17T11:45:05;1.48;;;0.88;;
64208;SDS011;50527;52.414;13.226;2023-08-17T11:47:34;4.25;;;1.05;;
64208;SDS011;50527;52.414;13.226;2023-08-17T11:50:03;4.70;;;0.88;;
64208;SDS011;50527;52.414;13.226;2023-08-17T11:52:30;3.88;;;1.05;;
64208;SDS011;50527;52.414;13.226;2023-08-17T11:55:01;1.17;;;0.77;;
64208;SDS011;50527;52.414;13.226;2023-08-17T11:57:26;2.70;;;0.90;;
64208;SDS011;50527;52.414;13.226;2023-08-17T11:59:52;2.08;;;1.00;;
64208;SDS011;50527;52.414;13.226;2023-08-17T12:02:20;2.92;;;1.10;;
64208;SDS011;50527;52.414;13.226;2023-08-17T12:04:47;1.85;;;1.10;;
64208;SDS011;50527;52.414;13.226;2023-08-17T12:07:13;2.38;;;0.90;;
64208;SDS011;50527;52.414;13.226;2023-08-17T12:09:38;2.88;;;1.20;;
64208;SDS011;50527;52.414;13.226;2023-08-17T12:12:05;2.15;;;1.00;;
64208;SDS011;50527;52.414;13.226;2023-08-17T12:14:30;3.58;;;1.10;;
64208;SDS011;50527;52.414;13.226;2023-08-17T12:16:56;3.55;;;1.00;;
64208;SDS011;50527;52.414;13.226;2023-08-17T12:19:24;5.28;;;1.20;;
64208;SDS011;50527;52.414;13.226;2023-08-17T12:21:50;3.78;;;0.82;;
64208;SDS011;50527;52.414;13.226;2023-08-17T12:24:15;3.28;;;1.08;;
64208;SDS011;50527;52.414;13.226;2023-08-17T12:26:42;3.83;;;0.88;;
64208;SDS011;50527;52.414;13.226;2023-08-17T12:29:08;4.30;;;0.90;;
64208;SDS011;50527;52.414;13.226;2023-08-17T12:31:34;5.63;;;1.08;;
64208;SDS011;50527;52.414;13.226;2023-08-17T12:34:00;2.90;;;1.20;;
64208;SDS011;50527;52.414;13.226;2023-08-17T12:36:25;2.20;;;1.10;;
64208;SDS011;50527;52.414;13.226;2023-08-17T12:38:51;3.25;;;1.23;;
64208;SDS011;50527;52.414;13.226;2023-08-17T12:41:16;1.58;;;0.90;;
64208;SDS011;50527;52.414;13.226;2023-08-17T12:43:42;3.92;;;1.08;;
64208;SDS011;50527;52.414;13.226;2023-08-17T12:46:08;2.28;;;1.00;;
64208;SDS011;50527;52.414;13.226;2023-08-17T12:48:33;3.55;;;1.00;;
64208;SDS011;50527;52.414;13.226;2023-08-17T12:50:59;2.97;;;1.20;;
64208;SDS011;50527;52.414;13.226;2023-08-17T12:53:24;3.00;;;1.27;;
64208;SDS011;50527;52.414;13.226;2023-08-17T12:55:50;3.25;;;1.00;;
64208;SDS011;50527;52.414;13.226;2023-08-17T12:58:15;2.10;;;1.10;;
64208;SDS011;50527;52.414;13.226;2023-08-17T13:00:41;3.20;;;1.00;;
64208;SDS011;50527;52.414;13.226;2023-08-17T13:03:06;2.15;;;1.08;;
64208;SDS011;50527;52.414;13.226;2023-08-17T13:05:32;3.15;;;1.10;;
64208;SDS011;50527;52.414;13.226;2023-08-17T13:07:58;4.05;;;0.98;;
64208;SDS011;50527;52.414;13.226;2023-08-17T13:10:23;5.55;;;1.10;;
64208;SDS011;50527;52.414;13.226;2023-08-17T13:12:49;4.88;;;1.23;;
64208;SDS011;50527;52.414;13.226;2023-08-17T13:15:18;2.00;;;1.02;;
64208;SDS011;50527;52.414;13.226;2023-08-17T13:17:43;3.53;;;1.50;;
64208;SDS011;50527;52.414;13.226;2023-08-17T13:20:09;2.65;;;1.40;;
64208;SDS011;50527;52.414;13.226;2023-08-17T13:22:35;3.33;;;1.25;;
64208;SDS011;50527;52.414;13.226;2023-08-17T13:25:01;4.20;;;1.38;;
64208;SDS011;50527;52.414;13.226;2023-08-17T13:27:27;3.92;;;1.30;;
64208;SDS011;50527;52.414;13.226;2023-08-17T13:29:52;1.42;;;1.20;;
64208;SDS011;50527;52.414;13.226;2023-08-17T13:32:18;2.70;;;1.50;;
64208;SDS011;50527;52.414;13.226;2023-08-17T13:34:43;3.08;;;1.30;;
64208;SDS011;50527;52.414;13.226;2023-08-17T13:37:08;2.10;;;1.35;;
64208;SDS011;50527;52.414;13.226;2023-08-17T13:39:34;2.80;;;1.38;;
64208;SDS011;50527;52.414;13.226;2023-08-17T13:41:59;4.65;;;1.27;;
64208;SDS011;50527;52.414;13.226;2023-08-17T13:44:25;3.33;;;1.20;;
64208;SDS011;50527;52.414;13.226;2023-08-17T13:46:50;1.67;;;1.10;;
64208;SDS011;50527;52.414;13.226;2023-08-17T13:49:16;3.80;;;1.10;;
64208;SDS011;50527;52.414;13.226;2023-08-17T13:51:41;2.35;;;1.08;;
64208;SDS011;50527;52.414;13.226;2023-08-17T13:54:07;2.15;;;1.35;;
64208;SDS011;50527;52.414;13.226;2023-08-17T13:56:32;3.28;;;1.35;;
64208;SDS011;50527;52.414;13.226;2023-08-17T13:58:58;2.83;;;1.35;;
64208;SDS011;50527;52.414;13.226;2023-08-17T14:01:23;2.13;;;1.30;;
64208;SDS011;50527;52.414;13.226;2023-08-17T14:03:48;2.80;;;1.50;;
64208;SDS011;50527;52.414;13.226;2023-08-17T14:06:14;2.95;;;1.40;;
64208;SDS011;50527;52.414;13.226;2023-08-17T14:08:40;2.40;;;1.40;;
64208;SDS011;50527;52.414;13.226;2023-08-17T14:11:06;3.83;;;1.25;;
64208;SDS011;50527;52.414;13.226;2023-08-17T14:13:32;3.05;;;1.38;;
64208;SDS011;50527;52.414;13.226;2023-08-17T14:15:59;4.13;;;1.48;;
64208;SDS011;50527;52.414;13.226;2023-08-17T14:18:24;2.25;;;1.20;;
64208;SDS011;50527;52.414;13.226;2023-08-17T14:20:50;4.00;;;1.25;;
64208;SDS011;50527;52.414;13.226;2023-08-17T14:23:16;3.25;;;1.23;;
64208;SDS011;50527;52.414;13.226;2023-08-17T14:25:41;2.25;;;1.30;;
64208;SDS011;50527;52.414;13.226;2023-08-17T14:28:07;3.35;;;1.33;;
64208;SDS011;50527;52.414;13.226;2023-08-17T14:30:33;3.22;;;1.55;;
64208;SDS011;50527;52.414;13.226;2023-08-17T14:32:58;2.17;;;1.15;;
64208;SDS011;50527;52.414;13.226;2023-08-17T14:35:24;8.80;;;1.20;;